Terminal Aerodrome Forecast
Issued by NWS Dodge City, KS

Home | Current Version | Previous Version | Graphics & Text | Print | Product List | Glossary Off
Versions: 1 2 3 4 5 6 7 8 9 10 11 12 13 14 15 16 17 18 19 20

000
FTUS43 KDDC 201100 RRA
TAFDDC
TAF
KDDC 201141Z 2012/2112 18012KT P6SM SCT040 BKN080
      TEMPO 2013/2017 5SM -SHRA BKN040
     FM201800 17014KT P6SM SCT040 BKN080
      TEMPO 1018/2022 TSRA OVC040CB
     FM210600 33010KT P6SM OVC040=

USA.gov is the U.S. government's official web portal to all federal, state and local government web resources and services.